sensor_id;sensor_type;location;lat;lon;timestamp;P1;durP1;ratioP1;P2;durP2;ratioP2
38629;SDS011;24384;51.988;4.644;2023-06-22T00:01:45;21.98;;;16.50;;
38629;SDS011;24384;51.988;4.644;2023-06-22T00:04:10;20.75;;;16.45;;
38629;SDS011;24384;51.988;4.644;2023-06-22T00:06:35;19.15;;;16.42;;
38629;SDS011;24384;51.988;4.644;2023-06-22T00:09:01;10.48;;;9.13;;
38629;SDS011;24384;51.988;4.644;2023-06-22T00:11:26;9.80;;;7.25;;
38629;SDS011;24384;51.988;4.644;2023-06-22T00:13:52;10.18;;;8.27;;
38629;SDS011;24384;51.988;4.644;2023-06-22T00:16:18;7.47;;;6.40;;
38629;SDS011;24384;51.988;4.644;2023-06-22T00:18:43;15.52;;;11.63;;
38629;SDS011;24384;51.988;4.644;2023-06-22T00:21:11;18.58;;;12.77;;
38629;SDS011;24384;51.988;4.644;2023-06-22T00:23:37;21.45;;;15.88;;
38629;SDS011;24384;51.988;4.644;2023-06-22T00:26:02;24.52;;;18.38;;
38629;SDS011;24384;51.988;4.644;2023-06-22T00:28:28;23.30;;;17.42;;
38629;SDS011;24384;51.988;4.644;2023-06-22T00:30:54;35.45;;;23.38;;
38629;SDS011;24384;51.988;4.644;2023-06-22T00:33:19;35.08;;;24.23;;
38629;SDS011;24384;51.988;4.644;2023-06-22T00:35:44;36.92;;;26.45;;
38629;SDS011;24384;51.988;4.644;2023-06-22T00:38:10;30.20;;;24.70;;
38629;SDS011;24384;51.988;4.644;2023-06-22T00:40:35;32.72;;;24.92;;
38629;SDS011;24384;51.988;4.644;2023-06-22T00:43:01;28.75;;;24.33;;
38629;SDS011;24384;51.988;4.644;2023-06-22T00:45:27;31.08;;;23.10;;
38629;SDS011;24384;51.988;4.644;2023-06-22T00:47:52;27.95;;;22.75;;
38629;SDS011;24384;51.988;4.644;2023-06-22T00:50:20;31.40;;;23.33;;
38629;SDS011;24384;51.988;4.644;2023-06-22T00:52:56;30.33;;;22.67;;
38629;SDS011;24384;51.988;4.644;2023-06-22T00:55:23;26.88;;;22.23;;
38629;SDS011;24384;51.988;4.644;2023-06-22T00:57:51;29.10;;;22.63;;
38629;SDS011;24384;51.988;4.644;2023-06-22T01:00:20;30.80;;;22.17;;
38629;SDS011;24384;51.988;4.644;2023-06-22T01:02:49;27.95;;;21.55;;
38629;SDS011;24384;51.988;4.644;2023-06-22T01:05:17;26.77;;;20.98;;
38629;SDS011;24384;51.988;4.644;2023-06-22T01:07:56;25.52;;;20.10;;
38629;SDS011;24384;51.988;4.644;2023-06-22T01:10:35;33.55;;;21.27;;
38629;SDS011;24384;51.988;4.644;2023-06-22T01:13:03;25.52;;;20.55;;
38629;SDS011;24384;51.988;4.644;2023-06-22T01:15:53;27.70;;;20.25;;
38629;SDS011;24384;51.988;4.644;2023-06-22T01:18:25;31.33;;;18.77;;
38629;SDS011;24384;51.988;4.644;2023-06-22T01:20:55;25.85;;;18.15;;
38629;SDS011;24384;51.988;4.644;2023-06-22T01:29:07;21.25;;;17.48;;
38629;SDS011;24384;51.988;4.644;2023-06-22T01:31:36;23.25;;;16.50;;
38629;SDS011;24384;51.988;4.644;2023-06-22T01:34:05;20.25;;;16.60;;
38629;SDS011;24384;51.988;4.644;2023-06-22T01:36:31;24.55;;;18.25;;
38629;SDS011;24384;51.988;4.644;2023-06-22T01:38:58;25.73;;;18.88;;
38629;SDS011;24384;51.988;4.644;2023-06-22T01:41:25;22.08;;;16.27;;
38629;SDS011;24384;51.988;4.644;2023-06-22T01:43:51;21.83;;;13.88;;
38629;SDS011;24384;51.988;4.644;2023-06-22T01:46:18;18.30;;;16.20;;
38629;SDS011;24384;51.988;4.644;2023-06-22T01:48:44;22.23;;;16.60;;
38629;SDS011;24384;51.988;4.644;2023-06-22T01:51:11;27.70;;;16.88;;
38629;SDS011;24384;51.988;4.644;2023-06-22T01:53:36;25.88;;;17.98;;
38629;SDS011;24384;51.988;4.644;2023-06-22T01:56:02;25.80;;;18.60;;
38629;SDS011;24384;51.988;4.644;2023-06-22T01:58:28;27.60;;;19.40;;
38629;SDS011;24384;51.988;4.644;2023-06-22T02:01:08;18.48;;;14.65;;
38629;SDS011;24384;51.988;4.644;2023-06-22T02:03:37;20.55;;;15.15;;
38629;SDS011;24384;51.988;4.644;2023-06-22T02:06:11;21.67;;;17.33;;
38629;SDS011;24384;51.988;4.644;2023-06-22T02:08:44;23.27;;;18.90;;
38629;SDS011;24384;51.988;4.644;2023-06-22T02:11:14;24.52;;;18.23;;
38629;SDS011;24384;51.988;4.644;2023-06-22T02:13:41;23.98;;;19.88;;
38629;SDS011;24384;51.988;4.644;2023-06-22T02:16:08;24.75;;;19.90;;
38629;SDS011;24384;51.988;4.644;2023-06-22T02:18:36;31.90;;;19.63;;
38629;SDS011;24384;51.988;4.644;2023-06-22T02:21:02;25.90;;;19.50;;
38629;SDS011;24384;51.988;4.644;2023-06-22T02:23:27;28.85;;;21.33;;
38629;SDS011;24384;51.988;4.644;2023-06-22T02:25:53;26.33;;;20.15;;
38629;SDS011;24384;51.988;4.644;2023-06-22T02:28:18;28.55;;;19.95;;
38629;SDS011;24384;51.988;4.644;2023-06-22T02:30:43;26.58;;;21.13;;
38629;SDS011;24384;51.988;4.644;2023-06-22T02:33:08;30.00;;;21.55;;
38629;SDS011;24384;51.988;4.644;2023-06-22T02:35:34;25.63;;;20.15;;
38629;SDS011;24384;51.988;4.644;2023-06-22T02:38:01;26.48;;;19.67;;
38629;SDS011;24384;51.988;4.644;2023-06-22T02:40:27;27.02;;;22.75;;
38629;SDS011;24384;51.988;4.644;2023-06-22T02:42:54;30.40;;;21.20;;
38629;SDS011;24384;51.988;4.644;2023-06-22T02:45:19;26.17;;;20.50;;
38629;SDS011;24384;51.988;4.644;2023-06-22T02:47:45;27.00;;;21.13;;
38629;SDS011;24384;51.988;4.644;2023-06-22T02:50:10;29.00;;;19.38;;
38629;SDS011;24384;51.988;4.644;2023-06-22T02:52:35;24.42;;;19.25;;
38629;SDS011;24384;51.988;4.644;2023-06-22T02:55:01;29.05;;;21.00;;
38629;SDS011;24384;51.988;4.644;2023-06-22T02:57:26;13.43;;;10.65;;
38629;SDS011;24384;51.988;4.644;2023-06-22T02:59:51;8.45;;;6.35;;
38629;SDS011;24384;51.988;4.644;2023-06-22T03:02:16;14.65;;;6.22;;
38629;SDS011;24384;51.988;4.644;2023-06-22T03:04:42;7.50;;;5.53;;
38629;SDS011;24384;51.988;4.644;2023-06-22T03:07:08;9.95;;;7.75;;
38629;SDS011;24384;51.988;4.644;2023-06-22T03:09:33;7.25;;;5.78;;
38629;SDS011;24384;51.988;4.644;2023-06-22T03:11:58;9.52;;;8.18;;
38629;SDS011;24384;51.988;4.644;2023-06-22T03:14:24;8.00;;;6.55;;
38629;SDS011;24384;51.988;4.644;2023-06-22T03:16:49;18.25;;;13.60;;
38629;SDS011;24384;51.988;4.644;2023-06-22T03:19:14;17.00;;;14.45;;
38629;SDS011;24384;51.988;4.644;2023-06-22T03:21:40;21.35;;;17.33;;
38629;SDS011;24384;51.988;4.644;2023-06-22T03:24:05;24.90;;;18.42;;
38629;SDS011;24384;51.988;4.644;2023-06-22T03:26:32;23.90;;;18.60;;
38629;SDS011;24384;51.988;4.644;2023-06-22T03:28:57;26.75;;;20.05;;
38629;SDS011;24384;51.988;4.644;2023-06-22T03:31:22;25.38;;;19.88;;
38629;SDS011;24384;51.988;4.644;2023-06-22T03:33:48;29.52;;;19.95;;
38629;SDS011;24384;51.988;4.644;2023-06-22T03:36:14;26.85;;;19.73;;
38629;SDS011;24384;51.988;4.644;2023-06-22T03:38:43;26.42;;;20.63;;
38629;SDS011;24384;51.988;4.644;2023-06-22T03:41:10;24.40;;;18.80;;
38629;SDS011;24384;51.988;4.644;2023-06-22T03:43:35;28.02;;;19.52;;
38629;SDS011;24384;51.988;4.644;2023-06-22T03:46:00;26.10;;;19.73;;
38629;SDS011;24384;51.988;4.644;2023-06-22T03:48:25;25.48;;;20.63;;
38629;SDS011;24384;51.988;4.644;2023-06-22T03:50:51;19.10;;;15.18;;
38629;SDS011;24384;51.988;4.644;2023-06-22T03:53:16;25.13;;;19.50;;
38629;SDS011;24384;51.988;4.644;2023-06-22T03:55:51;23.08;;;18.35;;
38629;SDS011;24384;51.988;4.644;2023-06-22T03:58:17;11.32;;;9.63;;
38629;SDS011;24384;51.988;4.644;2023-06-22T04:00:44;13.30;;;11.88;;
38629;SDS011;24384;51.988;4.644;2023-06-22T04:03:10;18.83;;;15.23;;
38629;SDS011;24384;51.988;4.644;2023-06-22T04:05:36;25.73;;;19.00;;
38629;SDS011;24384;51.988;4.644;2023-06-22T04:08:03;33.00;;;21.45;;
38629;SDS011;24384;51.988;4.644;2023-06-22T04:10:29;28.83;;;20.92;;
38629;SDS011;24384;51.988;4.644;2023-06-22T04:12:54;24.73;;;19.83;;
38629;SDS011;24384;51.988;4.644;2023-06-22T04:15:19;24.35;;;19.50;;
38629;SDS011;24384;51.988;4.644;2023-06-22T04:17:45;28.13;;;19.63;;
38629;SDS011;24384;51.988;4.644;2023-06-22T04:20:10;27.77;;;19.48;;
38629;SDS011;24384;51.988;4.644;2023-06-22T04:22:35;24.48;;;20.17;;
38629;SDS011;24384;51.988;4.644;2023-06-22T04:25:01;23.63;;;19.77;;
38629;SDS011;24384;51.988;4.644;2023-06-22T04:27:26;26.17;;;19.98;;
38629;SDS011;24384;51.988;4.644;2023-06-22T04:29:51;27.38;;;19.77;;
38629;SDS011;24384;51.988;4.644;2023-06-22T04:32:17;22.65;;;19.73;;
38629;SDS011;24384;51.988;4.644;2023-06-22T04:34:43;30.30;;;21.02;;
38629;SDS011;24384;51.988;4.644;2023-06-22T04:37:09;30.42;;;21.10;;
38629;SDS011;24384;51.988;4.644;2023-06-22T04:39:34;28.80;;;21.30;;
38629;SDS011;24384;51.988;4.644;2023-06-22T04:41:59;27.65;;;20.40;;
38629;SDS011;24384;51.988;4.644;2023-06-22T04:44:25;29.85;;;22.52;;
38629;SDS011;24384;51.988;4.644;2023-06-22T04:46:52;28.77;;;22.25;;
38629;SDS011;24384;51.988;4.644;2023-06-22T04:49:28;27.05;;;21.40;;
38629;SDS011;24384;51.988;4.644;2023-06-22T04:52:04;34.35;;;22.67;;
38629;SDS011;24384;51.988;4.644;2023-06-22T04:54:31;24.58;;;20.65;;
38629;SDS011;24384;51.988;4.644;2023-06-22T04:57:02;27.67;;;22.30;;
38629;SDS011;24384;51.988;4.644;2023-06-22T04:59:29;28.60;;;23.02;;
38629;SDS011;24384;51.988;4.644;2023-06-22T05:01:55;28.65;;;21.35;;
38629;SDS011;24384;51.988;4.644;2023-06-22T05:04:25;28.63;;;22.10;;
38629;SDS011;24384;51.988;4.644;2023-06-22T05:06:53;26.35;;;21.75;;
38629;SDS011;24384;51.988;4.644;2023-06-22T05:09:19;27.50;;;20.02;;
38629;SDS011;24384;51.988;4.644;2023-06-22T05:11:45;26.10;;;21.52;;
38629;SDS011;24384;51.988;4.644;2023-06-22T05:14:11;25.45;;;19.90;;
38629;SDS011;24384;51.988;4.644;2023-06-22T05:16:37;25.95;;;19.95;;
38629;SDS011;24384;51.988;4.644;2023-06-22T05:19:03;26.25;;;18.80;;
38629;SDS011;24384;51.988;4.644;2023-06-22T05:21:29;26.50;;;19.25;;
38629;SDS011;24384;51.988;4.644;2023-06-22T05:23:55;28.25;;;19.33;;
38629;SDS011;24384;51.988;4.644;2023-06-22T05:26:25;22.73;;;18.83;;
38629;SDS011;24384;51.988;4.644;2023-06-22T05:28:52;25.90;;;18.85;;
38629;SDS011;24384;51.988;4.644;2023-06-22T05:31:18;23.70;;;17.95;;
38629;SDS011;24384;51.988;4.644;2023-06-22T05:33:47;22.38;;;18.38;;
38629;SDS011;24384;51.988;4.644;2023-06-22T05:36:14;23.50;;;17.08;;
38629;SDS011;24384;51.988;4.644;2023-06-22T05:38:40;26.10;;;18.45;;
38629;SDS011;24384;51.988;4.644;2023-06-22T05:41:06;19.83;;;16.30;;
38629;SDS011;24384;51.988;4.644;2023-06-22T05:43:32;22.40;;;16.75;;
38629;SDS011;24384;51.988;4.644;2023-06-22T05:45:57;21.52;;;16.55;;
38629;SDS011;24384;51.988;4.644;2023-06-22T05:48:24;19.25;;;14.98;;
38629;SDS011;24384;51.988;4.644;2023-06-22T05:50:49;19.17;;;15.57;;
38629;SDS011;24384;51.988;4.644;2023-06-22T05:53:15;19.48;;;13.82;;
38629;SDS011;24384;51.988;4.644;2023-06-22T05:55:40;14.30;;;12.40;;
38629;SDS011;24384;51.988;4.644;2023-06-22T05:58:05;15.85;;;12.57;;
38629;SDS011;24384;51.988;4.644;2023-06-22T06:00:31;14.38;;;12.02;;
38629;SDS011;24384;51.988;4.644;2023-06-22T06:02:56;13.93;;;11.75;;
38629;SDS011;24384;51.988;4.644;2023-06-22T06:05:22;16.58;;;11.95;;
38629;SDS011;24384;51.988;4.644;2023-06-22T06:07:48;14.63;;;12.43;;
38629;SDS011;24384;51.988;4.644;2023-06-22T06:10:14;13.95;;;10.75;;
38629;SDS011;24384;51.988;4.644;2023-06-22T06:12:39;15.23;;;11.07;;
38629;SDS011;24384;51.988;4.644;2023-06-22T06:15:05;19.80;;;11.43;;
38629;SDS011;24384;51.988;4.644;2023-06-22T06:17:30;15.20;;;11.02;;
38629;SDS011;24384;51.988;4.644;2023-06-22T06:19:56;13.00;;;11.00;;
38629;SDS011;24384;51.988;4.644;2023-06-22T06:22:21;14.52;;;11.18;;
38629;SDS011;24384;51.988;4.644;2023-06-22T06:24:48;14.73;;;11.88;;
38629;SDS011;24384;51.988;4.644;2023-06-22T06:27:14;13.05;;;10.98;;
38629;SDS011;24384;51.988;4.644;2023-06-22T06:29:40;12.23;;;10.15;;
38629;SDS011;24384;51.988;4.644;2023-06-22T06:32:05;17.45;;;11.38;;
38629;SDS011;24384;51.988;4.644;2023-06-22T06:34:30;15.60;;;11.48;;
38629;SDS011;24384;51.988;4.644;2023-06-22T06:36:56;15.02;;;12.13;;
38629;SDS011;24384;51.988;4.644;2023-06-22T06:39:21;15.05;;;11.77;;
38629;SDS011;24384;51.988;4.644;2023-06-22T06:41:46;20.65;;;13.18;;
38629;SDS011;24384;51.988;4.644;2023-06-22T06:44:11;15.75;;;10.65;;
38629;SDS011;24384;51.988;4.644;2023-06-22T06:46:37;17.00;;;10.93;;
38629;SDS011;24384;51.988;4.644;2023-06-22T06:49:03;12.38;;;10.20;;
38629;SDS011;24384;51.988;4.644;2023-06-22T06:51:28;16.02;;;10.63;;
38629;SDS011;24384;51.988;4.644;2023-06-22T06:53:53;13.85;;;11.13;;
38629;SDS011;24384;51.988;4.644;2023-06-22T06:56:18;15.07;;;10.88;;
38629;SDS011;24384;51.988;4.644;2023-06-22T06:58:44;12.38;;;9.82;;
38629;SDS011;24384;51.988;4.644;2023-06-22T07:01:10;13.18;;;9.00;;
38629;SDS011;24384;51.988;4.644;2023-06-22T07:03:37;14.73;;;9.88;;
38629;SDS011;24384;51.988;4.644;2023-06-22T07:06:02;16.30;;;9.05;;
38629;SDS011;24384;51.988;4.644;2023-06-22T07:08:27;11.10;;;8.68;;
38629;SDS011;24384;51.988;4.644;2023-06-22T07:10:53;10.32;;;9.32;;
38629;SDS011;24384;51.988;4.644;2023-06-22T07:13:19;11.10;;;8.32;;
38629;SDS011;24384;51.988;4.644;2023-06-22T07:15:44;10.32;;;8.00;;
38629;SDS011;24384;51.988;4.644;2023-06-22T07:18:11;9.05;;;7.53;;
38629;SDS011;24384;51.988;4.644;2023-06-22T07:20:36;13.77;;;8.65;;
38629;SDS011;24384;51.988;4.644;2023-06-22T07:23:01;11.02;;;8.05;;
38629;SDS011;24384;51.988;4.644;2023-06-22T07:25:27;12.40;;;8.45;;
38629;SDS011;24384;51.988;4.644;2023-06-22T07:28:00;9.52;;;8.15;;
38629;SDS011;24384;51.988;4.644;2023-06-22T07:30:27;12.45;;;8.25;;
38629;SDS011;24384;51.988;4.644;2023-06-22T07:32:52;11.45;;;8.32;;
38629;SDS011;24384;51.988;4.644;2023-06-22T07:35:18;11.98;;;8.00;;
38629;SDS011;24384;51.988;4.644;2023-06-22T07:37:43;9.00;;;6.97;;
38629;SDS011;24384;51.988;4.644;2023-06-22T07:40:08;10.57;;;8.32;;
38629;SDS011;24384;51.988;4.644;2023-06-22T07:42:34;9.82;;;7.82;;
38629;SDS011;24384;51.988;4.644;2023-06-22T07:45:00;10.02;;;7.30;;
38629;SDS011;24384;51.988;4.644;2023-06-22T07:47:25;11.35;;;7.40;;
38629;SDS011;24384;51.988;4.644;2023-06-22T07:49:53;10.00;;;7.28;;
38629;SDS011;24384;51.988;4.644;2023-06-22T07:52:19;8.95;;;7.47;;
38629;SDS011;24384;51.988;4.644;2023-06-22T07:54:46;9.02;;;7.00;;
38629;SDS011;24384;51.988;4.644;2023-06-22T07:57:11;9.27;;;7.32;;
38629;SDS011;24384;51.988;4.644;2023-06-22T07:59:36;5.20;;;4.43;;
38629;SDS011;24384;51.988;4.644;2023-06-22T08:02:02;14.25;;;7.45;;
38629;SDS011;24384;51.988;4.644;2023-06-22T08:04:29;8.77;;;5.45;;
38629;SDS011;24384;51.988;4.644;2023-06-22T08:06:56;9.15;;;5.35;;
38629;SDS011;24384;51.988;4.644;2023-06-22T08:09:22;11.52;;;5.28;;
38629;SDS011;24384;51.988;4.644;2023-06-22T08:11:47;16.10;;;7.82;;
38629;SDS011;24384;51.988;4.644;2023-06-22T08:14:13;9.23;;;7.00;;
38629;SDS011;24384;51.988;4.644;2023-06-22T08:16:39;11.02;;;7.70;;
38629;SDS011;24384;51.988;4.644;2023-06-22T08:19:04;13.40;;;9.27;;
38629;SDS011;24384;51.988;4.644;2023-06-22T08:21:29;16.05;;;9.45;;
38629;SDS011;24384;51.988;4.644;2023-06-22T08:23:55;18.42;;;11.05;;
38629;SDS011;24384;51.988;4.644;2023-06-22T08:26:20;14.43;;;11.07;;
38629;SDS011;24384;51.988;4.644;2023-06-22T08:28:46;15.63;;;11.93;;
38629;SDS011;24384;51.988;4.644;2023-06-22T08:31:11;14.43;;;12.30;;
38629;SDS011;24384;51.988;4.644;2023-06-22T08:33:38;16.42;;;12.63;;
38629;SDS011;24384;51.988;4.644;2023-06-22T08:36:04;16.40;;;13.80;;
38629;SDS011;24384;51.988;4.644;2023-06-22T08:38:31;21.58;;;14.77;;
38629;SDS011;24384;51.988;4.644;2023-06-22T08:40:56;20.15;;;13.82;;
38629;SDS011;24384;51.988;4.644;2023-06-22T08:43:21;16.15;;;14.13;;
38629;SDS011;24384;51.988;4.644;2023-06-22T08:45:47;19.08;;;13.82;;
38629;SDS011;24384;51.988;4.644;2023-06-22T08:48:12;15.38;;;13.73;;
38629;SDS011;24384;51.988;4.644;2023-06-22T08:50:37;16.33;;;14.50;;
38629;SDS011;24384;51.988;4.644;2023-06-22T08:53:05;16.40;;;14.70;;
38629;SDS011;24384;51.988;4.644;2023-06-22T08:55:30;17.08;;;14.52;;
38629;SDS011;24384;51.988;4.644;2023-06-22T08:57:55;22.85;;;15.70;;
38629;SDS011;24384;51.988;4.644;2023-06-22T09:00:21;17.05;;;13.57;;
38629;SDS011;24384;51.988;4.644;2023-06-22T09:02:46;17.10;;;14.07;;
38629;SDS011;24384;51.988;4.644;2023-06-22T09:05:12;17.77;;;14.45;;
38629;SDS011;24384;51.988;4.644;2023-06-22T09:07:38;16.42;;;12.77;;
38629;SDS011;24384;51.988;4.644;2023-06-22T09:10:04;18.48;;;13.63;;
38629;SDS011;24384;51.988;4.644;2023-06-22T09:12:29;17.27;;;12.73;;
38629;SDS011;24384;51.988;4.644;2023-06-22T09:14:55;14.15;;;12.38;;
38629;SDS011;24384;51.988;4.644;2023-06-22T09:17:21;14.25;;;12.00;;
38629;SDS011;24384;51.988;4.644;2023-06-22T09:19:47;15.02;;;12.13;;
38629;SDS011;24384;51.988;4.644;2023-06-22T09:22:12;15.82;;;12.45;;
38629;SDS011;24384;51.988;4.644;2023-06-22T09:24:37;17.73;;;11.35;;
38629;SDS011;24384;51.988;4.644;2023-06-22T09:27:03;17.60;;;11.05;;
38629;SDS011;24384;51.988;4.644;2023-06-22T09:29:28;12.93;;;10.57;;
38629;SDS011;24384;51.988;4.644;2023-06-22T09:31:53;15.77;;;10.70;;
38629;SDS011;24384;51.988;4.644;2023-06-22T09:34:21;15.10;;;9.30;;
38629;SDS011;24384;51.988;4.644;2023-06-22T09:36:46;12.80;;;8.43;;
38629;SDS011;24384;51.988;4.644;2023-06-22T09:39:12;13.40;;;9.65;;
38629;SDS011;24384;51.988;4.644;2023-06-22T09:41:37;13.55;;;9.88;;
38629;SDS011;24384;51.988;4.644;2023-06-22T09:44:02;12.80;;;9.77;;
38629;SDS011;24384;51.988;4.644;2023-06-22T09:46:28;15.10;;;10.30;;
38629;SDS011;24384;51.988;4.644;2023-06-22T09:48:53;13.68;;;8.18;;
38629;SDS011;24384;51.988;4.644;2023-06-22T09:51:19;15.88;;;7.70;;
38629;SDS011;24384;51.988;4.644;2023-06-22T09:53:46;10.82;;;6.78;;
38629;SDS011;24384;51.988;4.644;2023-06-22T09:56:12;12.82;;;8.85;;
38629;SDS011;24384;51.988;4.644;2023-06-22T09:58:40;12.40;;;8.88;;
38629;SDS011;24384;51.988;4.644;2023-06-22T10:01:09;11.38;;;10.10;;
38629;SDS011;24384;51.988;4.644;2023-06-22T10:03:35;14.52;;;10.95;;
38629;SDS011;24384;51.988;4.644;2023-06-22T10:06:00;11.10;;;8.20;;
38629;SDS011;24384;51.988;4.644;2023-06-22T10:08:25;12.73;;;8.45;;
38629;SDS011;24384;51.988;4.644;2023-06-22T10:10:51;13.13;;;9.52;;
38629;SDS011;24384;51.988;4.644;2023-06-22T10:13:16;12.98;;;9.05;;
38629;SDS011;24384;51.988;4.644;2023-06-22T10:15:41;14.60;;;9.18;;
38629;SDS011;24384;51.988;4.644;2023-06-22T10:18:06;15.43;;;11.18;;
38629;SDS011;24384;51.988;4.644;2023-06-22T10:20:32;12.25;;;8.52;;
38629;SDS011;24384;51.988;4.644;2023-06-22T10:22:57;10.60;;;7.80;;
38629;SDS011;24384;51.988;4.644;2023-06-22T10:25:22;10.80;;;7.82;;
38629;SDS011;24384;51.988;4.644;2023-06-22T10:27:48;11.30;;;8.05;;
38629;SDS011;24384;51.988;4.644;2023-06-22T10:30:13;12.57;;;10.10;;
38629;SDS011;24384;51.988;4.644;2023-06-22T10:32:39;13.63;;;11.05;;
38629;SDS011;24384;51.988;4.644;2023-06-22T10:35:06;17.08;;;12.55;;
38629;SDS011;24384;51.988;4.644;2023-06-22T10:37:31;12.02;;;10.85;;
38629;SDS011;24384;51.988;4.644;2023-06-22T10:39:57;16.85;;;10.98;;
38629;SDS011;24384;51.988;4.644;2023-06-22T10:42:22;12.93;;;11.63;;
38629;SDS011;24384;51.988;4.644;2023-06-22T10:44:48;14.55;;;11.40;;
38629;SDS011;24384;51.988;4.644;2023-06-22T10:47:13;12.32;;;10.98;;
38629;SDS011;24384;51.988;4.644;2023-06-22T10:49:39;15.48;;;12.90;;
38629;SDS011;24384;51.988;4.644;2023-06-22T10:52:07;17.83;;;14.05;;
38629;SDS011;24384;51.988;4.644;2023-06-22T10:54:34;16.75;;;13.85;;
38629;SDS011;24384;51.988;4.644;2023-06-22T10:57:00;15.90;;;13.40;;
38629;SDS011;24384;51.988;4.644;2023-06-22T10:59:26;16.92;;;13.65;;
38629;SDS011;24384;51.988;4.644;2023-06-22T11:01:52;15.48;;;12.68;;
38629;SDS011;24384;51.988;4.644;2023-06-22T11:04:18;17.70;;;13.40;;
38629;SDS011;24384;51.988;4.644;2023-06-22T11:06:43;20.67;;;14.07;;
38629;SDS011;24384;51.988;4.644;2023-06-22T11:09:08;17.15;;;13.30;;
38629;SDS011;24384;51.988;4.644;2023-06-22T11:11:34;16.52;;;13.20;;
38629;SDS011;24384;51.988;4.644;2023-06-22T11:13:59;18.35;;;13.40;;
38629;SDS011;24384;51.988;4.644;2023-06-22T11:16:26;16.67;;;13.70;;
38629;SDS011;24384;51.988;4.644;2023-06-22T11:18:52;17.92;;;14.00;;
38629;SDS011;24384;51.988;4.644;2023-06-22T11:21:17;20.77;;;15.63;;
38629;SDS011;24384;51.988;4.644;2023-06-22T11:23:42;20.45;;;13.70;;
38629;SDS011;24384;51.988;4.644;2023-06-22T11:26:07;20.30;;;15.90;;
38629;SDS011;24384;51.988;4.644;2023-06-22T11:28:33;18.55;;;15.38;;
38629;SDS011;24384;51.988;4.644;2023-06-22T11:30:58;17.30;;;15.25;;
38629;SDS011;24384;51.988;4.644;2023-06-22T11:33:23;17.85;;;15.13;;
38629;SDS011;24384;51.988;4.644;2023-06-22T11:35:49;19.75;;;15.20;;
38629;SDS011;24384;51.988;4.644;2023-06-22T11:38:14;21.52;;;15.57;;
38629;SDS011;24384;51.988;4.644;2023-06-22T11:40:40;14.60;;;13.05;;
38629;SDS011;24384;51.988;4.644;2023-06-22T11:43:05;18.05;;;13.27;;
38629;SDS011;24384;51.988;4.644;2023-06-22T11:45:30;17.42;;;12.93;;
38629;SDS011;24384;51.988;4.644;2023-06-22T11:47:55;19.60;;;14.25;;
38629;SDS011;24384;51.988;4.644;2023-06-22T11:50:21;13.32;;;12.00;;
38629;SDS011;24384;51.988;4.644;2023-06-22T11:52:46;16.58;;;13.55;;
38629;SDS011;24384;51.988;4.644;2023-06-22T11:55:11;17.50;;;13.05;;
38629;SDS011;24384;51.988;4.644;2023-06-22T11:57:39;16.65;;;14.85;;
38629;SDS011;24384;51.988;4.644;2023-06-22T12:00:18;20.40;;;15.63;;
38629;SDS011;24384;51.988;4.644;2023-06-22T12:02:44;18.90;;;15.90;;
38629;SDS011;24384;51.988;4.644;2023-06-22T12:05:10;19.10;;;16.38;;
38629;SDS011;24384;51.988;4.644;2023-06-22T12:07:35;19.80;;;16.33;;
38629;SDS011;24384;51.988;4.644;2023-06-22T12:10:01;22.08;;;17.02;;
38629;SDS011;24384;51.988;4.644;2023-06-22T12:12:26;19.02;;;16.20;;
38629;SDS011;24384;51.988;4.644;2023-06-22T12:14:52;18.67;;;16.52;;
38629;SDS011;24384;51.988;4.644;2023-06-22T12:17:17;21.10;;;17.35;;
38629;SDS011;24384;51.988;4.644;2023-06-22T12:19:42;23.42;;;16.80;;
38629;SDS011;24384;51.988;4.644;2023-06-22T12:22:07;19.63;;;16.98;;
38629;SDS011;24384;51.988;4.644;2023-06-22T12:24:33;23.67;;;18.10;;
38629;SDS011;24384;51.988;4.644;2023-06-22T12:26:58;21.00;;;17.73;;
38629;SDS011;24384;51.988;4.644;2023-06-22T12:29:23;21.80;;;19.05;;
38629;SDS011;24384;51.988;4.644;2023-06-22T12:31:48;24.52;;;20.08;;
38629;SDS011;24384;51.988;4.644;2023-06-22T12:34:14;21.55;;;18.63;;
38629;SDS011;24384;51.988;4.644;2023-06-22T12:36:39;25.05;;;19.25;;
38629;SDS011;24384;51.988;4.644;2023-06-22T12:39:04;20.52;;;18.40;;
38629;SDS011;24384;51.988;4.644;2023-06-22T12:41:29;22.50;;;19.52;;
38629;SDS011;24384;51.988;4.644;2023-06-22T12:43:55;20.77;;;17.73;;
38629;SDS011;24384;51.988;4.644;2023-06-22T12:46:20;24.00;;;20.08;;
38629;SDS011;24384;51.988;4.644;2023-06-22T12:48:45;22.80;;;19.83;;
38629;SDS011;24384;51.988;4.644;2023-06-22T12:51:10;22.55;;;18.60;;
38629;SDS011;24384;51.988;4.644;2023-06-22T12:53:35;24.45;;;19.98;;
38629;SDS011;24384;51.988;4.644;2023-06-22T12:56:01;26.45;;;20.40;;
38629;SDS011;24384;51.988;4.644;2023-06-22T12:58:26;26.40;;;20.52;;
38629;SDS011;24384;51.988;4.644;2023-06-22T13:00:51;22.73;;;19.23;;
38629;SDS011;24384;51.988;4.644;2023-06-22T13:03:17;22.10;;;19.70;;
38629;SDS011;24384;51.988;4.644;2023-06-22T13:05:42;25.08;;;18.95;;
38629;SDS011;24384;51.988;4.644;2023-06-22T13:08:07;22.88;;;18.15;;
38629;SDS011;24384;51.988;4.644;2023-06-22T13:10:33;24.40;;;19.30;;
38629;SDS011;24384;51.988;4.644;2023-06-22T13:12:58;23.58;;;20.35;;
38629;SDS011;24384;51.988;4.644;2023-06-22T13:15:26;25.15;;;18.35;;
38629;SDS011;24384;51.988;4.644;2023-06-22T13:17:54;20.70;;;18.50;;
38629;SDS011;24384;51.988;4.644;2023-06-22T13:20:20;23.02;;;19.67;;
38629;SDS011;24384;51.988;4.644;2023-06-22T13:22:46;20.95;;;17.25;;
38629;SDS011;24384;51.988;4.644;2023-06-22T13:25:11;21.02;;;18.70;;
38629;SDS011;24384;51.988;4.644;2023-06-22T13:27:41;20.98;;;18.55;;
38629;SDS011;24384;51.988;4.644;2023-06-22T13:30:07;23.00;;;19.33;;
38629;SDS011;24384;51.988;4.644;2023-06-22T13:32:33;27.98;;;20.90;;
38629;SDS011;24384;51.988;4.644;2023-06-22T13:34:58;23.98;;;18.20;;
38629;SDS011;24384;51.988;4.644;2023-06-22T13:37:23;23.88;;;19.92;;
38629;SDS011;24384;51.988;4.644;2023-06-22T13:39:49;23.85;;;19.77;;
38629;SDS011;24384;51.988;4.644;2023-06-22T13:42:14;22.40;;;19.55;;
38629;SDS011;24384;51.988;4.644;2023-06-22T13:44:39;20.73;;;18.02;;
38629;SDS011;24384;51.988;4.644;2023-06-22T13:47:06;22.67;;;19.83;;
38629;SDS011;24384;51.988;4.644;2023-06-22T13:49:31;24.35;;;19.83;;
38629;SDS011;24384;51.988;4.644;2023-06-22T13:51:57;23.90;;;17.77;;
38629;SDS011;24384;51.988;4.644;2023-06-22T13:54:22;23.25;;;19.33;;
38629;SDS011;24384;51.988;4.644;2023-06-22T13:56:47;24.65;;;19.42;;
38629;SDS011;24384;51.988;4.644;2023-06-22T13:59:13;26.85;;;21.30;;
38629;SDS011;24384;51.988;4.644;2023-06-22T14:01:38;25.15;;;20.17;;
38629;SDS011;24384;51.988;4.644;2023-06-22T14:04:04;31.15;;;21.60;;
38629;SDS011;24384;51.988;4.644;2023-06-22T14:06:30;27.60;;;21.27;;
38629;SDS011;24384;51.988;4.644;2023-06-22T14:08:55;28.00;;;21.55;;
38629;SDS011;24384;51.988;4.644;2023-06-22T14:11:21;24.63;;;18.50;;
38629;SDS011;24384;51.988;4.644;2023-06-22T14:13:46;19.35;;;17.23;;
38629;SDS011;24384;51.988;4.644;2023-06-22T14:16:11;21.88;;;18.67;;
38629;SDS011;24384;51.988;4.644;2023-06-22T14:18:37;21.92;;;18.67;;
38629;SDS011;24384;51.988;4.644;2023-06-22T14:21:02;22.08;;;18.23;;
38629;SDS011;24384;51.988;4.644;2023-06-22T14:23:27;20.75;;;16.90;;